Terminal Aerodrome Forecast
Issued by NWS Quad Cities IA IL

Home | Current Version | Previous Version | Text Only | Print | Product List | Glossary On
Versions: 1 2 3 4 5 6 7 8 9 10 11 12 13 14 15 16 17 18 19 20 21 22 23 24 25 26 27 28 29 30
000
FTUS43 KDVN 280520
TAFDBQ
TAF
KDBQ 280520Z 2806/2906 20004KT P6SM SKC
     FM281500 18010KT P6SM SCT250
     FM282200 16012KT P6SM SCT120
     FM290300 13007KT P6SM BKN100=

USA.gov is the U.S. government's official web portal to all federal, state and local government web resources and services.